Time;durP1;ratioP1;P1;durP2;ratioP2;P2;SDS_P1;SDS_P2;PMS_P1;PMS_P2;Temp;Humidity;BMP_temperature;BMP_pressure;BME280_temperature;BME280_humidity;BME280_pressure;Samples;Min_cycle;Max_cycle;Signal;HPM_P1;HPM_P2
2021/12/29 00:00:15;;;;;;;10.43;6.00;;;;;;;7.72;100.00;99856.63;2607701;31;20110;-54
2021/12/29 00:02:46;;;;;;;13.05;5.80;;;;;;;7.69;100.00;99862.28;2612918;36;20134;-58
2021/12/29 00:05:14;;;;;;;10.00;6.10;;;;;;;7.65;100.00;99860.88;2612466;36;20118;-53
2021/12/29 00:07:43;;;;;;;12.98;5.40;;;;;;;7.65;100.00;99860.88;2614441;36;20535;-55
2021/12/29 00:10:15;;;;;;;12.85;5.38;;;;;;;7.84;100.00;99869.91;2616313;36;20077;-54
2021/12/29 00:12:47;;;;;;;8.55;4.90;;;;;;;7.78;100.00;99881.19;2612437;36;20035;-53
2021/12/29 00:15:17;;;;;;;9.65;5.25;;;;;;;7.75;100.00;99887.66;2613692;36;20514;-56
2021/12/29 00:17:50;;;;;;;11.27;5.25;;;;;;;7.80;100.00;99893.47;2614706;36;20038;-52
2021/12/29 00:20:22;;;;;;;12.43;6.80;;;;;;;7.78;100.00;99903.44;2614618;31;20038;-49
2021/12/29 00:22:51;;;;;;;16.00;7.72;;;;;;;7.69;100.00;99915.03;2614627;36;20026;-51
2021/12/29 00:25:19;;;;;;;15.18;8.82;;;;;;;7.79;100.00;99928.38;2614914;36;20030;-51
2021/12/29 00:27:47;;;;;;;21.45;9.77;;;;;;;7.75;100.00;99938.56;2615117;36;20150;-49
2021/12/29 00:30:16;;;;;;;18.02;10.48;;;;;;;7.76;100.00;99948.28;2614851;36;20050;-50
2021/12/29 00:32:44;;;;;;;21.83;11.57;;;;;;;7.72;100.00;99953.06;2613104;31;20697;-49
2021/12/29 00:35:15;;;;;;;30.08;14.50;;;;;;;7.69;100.00;99958.72;2611129;36;20163;-51
2021/12/29 00:37:44;;;;;;;31.45;15.80;;;;;;;7.74;100.00;99965.47;2612118;36;20038;-54
2021/12/29 00:40:14;;;;;;;40.45;15.88;;;;;;;7.72;100.00;99977.16;2612654;31;20038;-52
2021/12/29 00:42:43;;;;;;;39.30;16.80;;;;;;;7.71;100.00;99988.91;2610948;36;20141;-51
2021/12/29 00:45:12;;;;;;;31.30;15.70;;;;;;;7.70;100.00;100007.78;2611502;36;20082;-54
2021/12/29 00:47:41;;;;;;;30.83;15.52;;;;;;;7.67;100.00;100003.53;2610806;36;20035;-54
2021/12/29 00:50:13;;;;;;;31.67;15.82;;;;;;;7.72;100.00;100011.16;2613890;36;20607;-52
2021/12/29 00:52:45;;;;;;;35.25;16.52;;;;;;;7.68;100.00;100018.59;2612553;36;20036;-54
2021/12/29 00:55:14;;;;;;;32.20;17.15;;;;;;;7.68;100.00;100021.28;2613079;36;20423;-51
2021/12/29 00:57:43;;;;;;;36.25;17.48;;;;;;;7.62;100.00;100032.56;2613662;36;20042;-51
2021/12/29 01:00:14;;;;;;;30.25;16.20;;;;;;;7.67;100.00;100048.22;2613336;31;20118;-53
2021/12/29 01:02:43;;;;;;;30.27;16.27;;;;;;;7.61;100.00;100046.94;2612165;36;20086;-55
2021/12/29 01:05:14;;;;;;;25.27;13.65;;;;;;;7.65;100.00;100042.16;2613965;36;20034;-55
2021/12/29 01:07:49;;;;;;;30.50;13.00;;;;;;;7.66;100.00;100055.41;2613653;36;20035;-52
2021/12/29 01:10:18;;;;;;;21.20;11.52;;;;;;;7.60;100.00;100055.97;2612853;36;20574;-54
2021/12/29 01:12:53;;;;;;;22.27;10.63;;;;;;;7.61;100.00;100065.69;2612411;36;20138;-55
2021/12/29 01:15:31;;;;;;;21.05;10.48;;;;;;;7.57;100.00;100066.94;2615177;36;20022;-55
2021/12/29 01:18:01;;;;;;;23.42;9.70;;;;;;;7.51;100.00;100079.03;2615104;36;20044;-50
2021/12/29 01:20:31;;;;;;;17.13;8.93;;;;;;;7.52;100.00;100091.47;2614426;31;20026;-50
2021/12/29 01:23:02;;;;;;;19.10;10.68;;;;;;;7.54;100.00;100085.97;2615019;31;20038;-53
2021/12/29 01:25:31;;;;;;;17.42;10.35;;;;;;;7.56;100.00;100094.69;2614270;36;20062;-55
2021/12/29 01:28:00;;;;;;;15.18;8.88;;;;;;;7.51;100.00;100115.69;2614798;36;20046;-54
2021/12/29 01:30:28;;;;;;;18.67;9.35;;;;;;;7.46;100.00;100109.88;2615132;36;20050;-53
2021/12/29 01:32:57;;;;;;;13.00;8.38;;;;;;;7.41;100.00;100120.16;2615750;31;20653;-51
2021/12/29 01:35:25;;;;;;;21.63;10.82;;;;;;;7.40;100.00;100129.16;2615166;31;20519;-50
2021/12/29 01:37:54;;;;;;;21.23;10.05;;;;;;;7.41;100.00;100141.56;2612336;36;20045;-51
2021/12/29 01:40:25;;;;;;;21.70;10.27;;;;;;;7.51;100.00;100143.31;2611834;36;20141;-52
2021/12/29 01:42:53;;;;;;;17.65;9.98;;;;;;;7.58;100.00;100145.44;2613164;36;20082;-55
2021/12/29 01:45:21;;;;;;;20.05;10.48;;;;;;;7.48;100.00;100142.72;2612889;36;20050;-54
2021/12/29 01:47:50;;;;;;;20.70;9.50;;;;;;;7.42;100.00;100156.63;2612403;36;20122;-53
2021/12/29 01:50:20;;;;;;;23.10;9.88;;;;;;;7.43;100.00;100163.69;2612018;36;20067;-52
2021/12/29 01:52:54;;;;;;;19.90;9.48;;;;;;;7.36;100.00;100161.56;2614347;31;20538;-51
2021/12/29 01:55:27;;;;;;;17.30;8.30;;;;;;;7.42;100.00;100157.50;2616323;36;20037;-50
2021/12/29 01:57:56;;;;;;;22.65;9.15;;;;;;;7.41;100.00;100157.66;2615233;36;20022;-52
2021/12/29 02:00:28;;;;;;;18.80;9.38;;;;;;;7.32;100.00;100164.63;2615024;36;20080;-51
2021/12/29 02:02:56;;;;;;;21.45;8.88;;;;;;;7.37;100.00;100173.94;2615144;36;20081;-55
2021/12/29 02:05:25;;;;;;;19.00;8.60;;;;;;;7.39;100.00;100187.22;2614750;36;20134;-52
2021/12/29 02:07:53;;;;;;;20.35;9.32;;;;;;;7.35;100.00;100186.63;2615049;36;20053;-49
2021/12/29 02:10:24;;;;;;;23.13;10.10;;;;;;;7.36;100.00;100199.03;2612590;31;20034;-54
2021/12/29 02:12:55;;;;;;;16.85;8.70;;;;;;;7.37;100.00;100178.47;2613316;36;20039;-53
2021/12/29 02:15:23;;;;;;;18.63;8.75;;;;;;;7.41;100.00;100187.94;2615609;31;20518;-53
2021/12/29 02:17:52;;;;;;;25.08;9.30;;;;;;;7.39;100.00;100184.56;2614171;36;20038;-51
2021/12/29 02:20:23;;;;;;;17.07;9.13;;;;;;;7.52;100.00;100187.00;2614412;36;20065;-51
2021/12/29 02:23:00;;;;;;;18.27;8.68;;;;;;;7.50;100.00;100180.94;2614090;36;20361;-50
2021/12/29 02:25:46;;;;;;;20.75;9.50;;;;;;;7.58;100.00;100189.13;2616108;36;20430;-54
2021/12/29 02:28:15;;;;;;;26.00;9.27;;;;;;;7.62;100.00;100197.75;2613928;36;20026;-50
2021/12/29 02:30:44;;;;;;;24.58;9.85;;;;;;;7.56;100.00;100196.47;2614870;31;20046;-51
2021/12/29 02:33:13;;;;;;;21.80;9.45;;;;;;;7.71;100.00;100203.19;2615823;36;20574;-53
2021/12/29 02:35:45;;;;;;;21.63;9.50;;;;;;;7.78;100.00;100203.47;2614822;36;20042;-50
2021/12/29 02:38:20;;;;;;;20.40;9.68;;;;;;;7.85;100.00;100211.84;2614779;36;20069;-51
2021/12/29 02:40:52;;;;;;;23.05;9.10;;;;;;;7.70;100.00;100206.00;2615497;36;20452;-53
2021/12/29 02:43:22;;;;;;;22.27;10.30;;;;;;;7.93;100.00;100203.97;2615057;36;20038;-54
2021/12/29 02:45:58;;;;;;;18.25;10.02;;;;;;;7.91;100.00;100216.66;2612393;36;20126;-51
2021/12/29 02:48:28;;;;;;;25.95;10.18;;;;;;;7.84;100.00;100226.22;2615325;36;20046;-53
2021/12/29 02:51:00;;;;;;;27.00;9.57;;;;;;;7.93;100.00;100214.69;2615825;31;20450;-53
2021/12/29 02:53:30;;;;;;;23.88;9.98;;;;;;;7.80;100.00;100216.72;2616123;36;20030;-54
2021/12/29 02:55:59;;;;;;;31.42;10.90;;;;;;;7.97;100.00;100218.78;2616308;31;20468;-50
2021/12/29 02:58:28;;;;;;;21.48;9.65;;;;;;;7.93;100.00;100211.16;2615295;36;20029;-52
2021/12/29 03:00:59;;;;;;;23.75;10.93;;;;;;;7.77;100.00;100228.56;2615848;36;20059;-53
2021/12/29 03:03:30;;;;;;;27.85;10.00;;;;;;;7.86;100.00;100221.56;2615940;36;20134;-53
2021/12/29 03:06:01;;;;;;;25.27;10.30;;;;;;;7.95;100.00;100223.44;2614896;36;20061;-49
2021/12/29 03:08:29;;;;;;;27.58;9.93;;;;;;;7.87;100.00;100217.91;2615916;31;20460;-54
2021/12/29 03:10:58;;;;;;;24.80;10.18;;;;;;;7.83;100.00;100229.84;2615959;36;20034;-50
2021/12/29 03:13:30;;;;;;;23.30;8.40;;;;;;;7.80;100.00;100228.31;2615063;36;20045;-51
2021/12/29 03:15:58;;;;;;;17.98;8.88;;;;;;;7.69;100.00;100231.91;2615113;36;20048;-51
2021/12/29 03:18:26;;;;;;;22.80;8.45;;;;;;;7.70;100.00;100251.53;2614908;36;21493;-51
2021/12/29 03:20:55;;;;;;;27.95;9.05;;;;;;;7.79;100.00;100260.56;2605720;36;20047;-50
2021/12/29 03:23:26;;;;;;;19.23;8.18;;;;;;;7.78;100.00;100266.94;2614433;36;20607;-51
2021/12/29 03:25:54;;;;;;;20.33;8.95;;;;;;;7.88;100.00;100267.84;2616243;36;20063;-55
2021/12/29 03:28:24;;;;;;;18.88;8.55;;;;;;;7.85;100.00;100279.66;2614862;36;20118;-53
2021/12/29 03:30:55;;;;;;;16.02;8.45;;;;;;;7.82;100.00;100285.28;2614450;36;20578;-53
2021/12/29 03:33:26;;;;;;;20.83;8.68;;;;;;;7.83;100.00;100288.81;2615270;36;20022;-53
2021/12/29 03:35:57;;;;;;;28.08;9.52;;;;;;;7.83;100.00;100296.84;2615158;36;20162;-52
2021/12/29 03:38:30;;;;;;;19.05;8.38;;;;;;;7.94;100.00;100304.81;2614760;36;20027;-54
2021/12/29 03:40:59;;;;;;;23.25;9.10;;;;;;;7.97;100.00;100307.22;2614547;36;20063;-54
2021/12/29 03:43:29;;;;;;;25.60;9.20;;;;;;;7.83;100.00;100313.78;2617109;31;20559;-52
2021/12/29 03:45:58;;;;;;;20.35;8.00;;;;;;;7.81;100.00;100328.28;2615709;31;20038;-50
2021/12/29 03:48:29;;;;;;;21.25;7.82;;;;;;;7.77;100.00;100324.16;2616067;36;20470;-52
2021/12/29 03:50:57;;;;;;;21.33;8.25;;;;;;;7.68;100.00;100328.47;2614474;36;20400;-53
2021/12/29 03:53:28;;;;;;;19.38;6.72;;;;;;;7.61;100.00;100327.28;2614256;36;20638;-53
2021/12/29 03:55:57;;;;;;;21.17;7.30;;;;;;;7.66;100.00;100331.28;2616170;31;20030;-53
2021/12/29 03:58:28;;;;;;;16.45;6.50;;;;;;;7.76;100.00;100326.00;2614891;31;20479;-50
2021/12/29 04:00:59;;;;;;;17.77;5.93;;;;;;;7.65;100.00;100326.91;2616099;36;20113;-54
2021/12/29 04:03:28;;;;;;;17.50;6.85;;;;;;;7.74;100.00;100319.06;2615194;36;20027;-50
2021/12/29 04:05:56;;;;;;;19.95;6.30;;;;;;;7.89;100.00;100336.50;2614835;36;20058;-50
2021/12/29 04:08:27;;;;;;;19.00;7.25;;;;;;;7.96;100.00;100329.63;2615168;36;20126;-51
2021/12/29 04:10:55;;;;;;;19.67;6.90;;;;;;;7.93;100.00;100340.63;2616850;31;20524;-53
2021/12/29 04:13:24;;;;;;;18.05;6.80;;;;;;;8.00;100.00;100336.44;2612508;31;20042;-54
2021/12/29 04:15:52;;;;;;;19.65;6.78;;;;;;;7.91;100.00;100347.13;2613155;36;20507;-51
2021/12/29 04:18:30;;;;;;;19.77;7.03;;;;;;;7.94;100.00;100347.69;2615033;36;20046;-53
2021/12/29 04:21:03;;;;;;;20.17;6.60;;;;;;;8.03;100.00;100344.19;2615271;36;20035;-52
2021/12/29 04:23:37;;;;;;;16.17;5.95;;;;;;;8.03;100.00;100346.88;2615402;36;20332;-55
2021/12/29 04:26:08;;;;;;;19.67;6.68;;;;;;;8.01;100.00;100348.84;2614780;31;20558;-51
2021/12/29 04:28:36;;;;;;;19.05;7.22;;;;;;;8.12;100.00;100347.09;2614923;36;20040;-51
2021/12/29 04:31:08;;;;;;;15.32;7.53;;;;;;;8.12;100.00;100344.41;2614272;36;20081;-52
2021/12/29 04:33:38;;;;;;;18.88;7.18;;;;;;;8.09;100.00;100356.22;2613175;36;20023;-55
2021/12/29 04:36:07;;;;;;;21.15;8.02;;;;;;;8.16;100.00;100351.19;2613016;36;20130;-55
2021/12/29 04:38:38;;;;;;;21.40;7.93;;;;;;;8.11;100.00;100358.78;2614720;36;20034;-53
2021/12/29 04:41:06;;;;;;;22.35;8.02;;;;;;;8.07;100.00;100366.25;2614358;36;20085;-50
2021/12/29 04:43:34;;;;;;;22.25;8.68;;;;;;;7.97;100.00;100368.84;2615716;36;20114;-54
2021/12/29 04:46:02;;;;;;;24.25;9.05;;;;;;;8.20;100.00;100374.06;2614957;36;20149;-53
2021/12/29 04:48:37;;;;;;;23.88;9.27;;;;;;;8.16;100.00;100369.97;2614966;36;20038;-50
2021/12/29 04:51:14;;;;;;;29.42;9.32;;;;;;;8.21;100.00;100376.59;2615415;36;20076;-53
2021/12/29 04:53:45;;;;;;;21.05;8.43;;;;;;;8.18;100.00;100384.06;2614346;36;20539;-53
2021/12/29 04:56:15;;;;;;;18.85;8.05;;;;;;;8.19;100.00;100391.97;2615014;36;20057;-54
2021/12/29 04:58:43;;;;;;;19.05;8.77;;;;;;;8.25;100.00;100380.72;2615312;36;20046;-53
2021/12/29 05:01:11;;;;;;;22.70;8.80;;;;;;;8.18;100.00;100401.00;2614879;36;20042;-53
2021/12/29 05:03:43;;;;;;;26.53;8.73;;;;;;;8.22;100.00;100398.91;2615973;36;20184;-54
2021/12/29 05:08:55;;;;;;;23.85;8.75;;;;;;;8.14;100.00;100396.91;2615027;31;20578;-50
2021/12/29 05:11:23;;;;;;;16.83;8.48;;;;;;;8.23;100.00;100398.78;2615850;36;20082;-53
2021/12/29 05:13:51;;;;;;;23.48;9.10;;;;;;;8.26;100.00;100397.69;2612247;36;20092;-55
2021/12/29 05:16:19;;;;;;;22.25;9.02;;;;;;;8.13;100.00;100394.34;2615380;36;20610;-54
2021/12/29 05:18:48;;;;;;;32.17;10.43;;;;;;;8.12;100.00;100403.38;2614171;36;20126;-53
2021/12/29 05:21:16;;;;;;;27.77;10.73;;;;;;;8.18;100.00;100402.84;2614682;36;20034;-53
2021/12/29 05:23:45;;;;;;;22.33;10.50;;;;;;;8.14;100.00;100401.41;2615677;36;20151;-51
2021/12/29 05:26:15;;;;;;;23.50;10.65;;;;;;;8.13;100.00;100405.09;2614329;31;20097;-48
2021/12/29 05:28:44;;;;;;;26.17;10.30;;;;;;;8.14;100.00;100396.03;2614341;31;20531;-51
2021/12/29 05:31:12;;;;;;;22.13;11.32;;;;;;;8.27;100.00;100402.03;2614553;36;20581;-51
2021/12/29 05:33:41;;;;;;;28.75;10.85;;;;;;;8.31;100.00;100405.31;2614170;36;20093;-52
2021/12/29 05:36:09;;;;;;;28.38;10.75;;;;;;;8.37;100.00;100404.78;2613333;31;20122;-49
2021/12/29 05:38:37;;;;;;;20.40;9.73;;;;;;;8.26;100.00;100405.72;2614803;36;20073;-51
2021/12/29 05:41:05;;;;;;;23.92;10.25;;;;;;;8.26;100.00;100411.09;2614117;36;20083;-51
2021/12/29 05:43:36;;;;;;;28.92;10.93;;;;;;;8.25;100.00;100420.09;2614431;31;20026;-53
2021/12/29 05:46:05;;;;;;;29.55;11.65;;;;;;;8.17;100.00;100411.84;2614788;31;20174;-50
2021/12/29 05:48:34;;;;;;;27.63;10.77;;;;;;;8.30;100.00;100420.53;2614749;36;20117;-49
2021/12/29 05:51:02;;;;;;;28.55;10.65;;;;;;;8.16;100.00;100431.63;2614587;36;20426;-53
2021/12/29 05:53:30;;;;;;;21.35;9.60;;;;;;;8.33;100.00;100433.72;2614907;36;20151;-52
2021/12/29 05:55:59;;;;;;;27.27;10.25;;;;;;;8.40;100.00;100432.16;2615009;36;20108;-51
2021/12/29 05:58:27;;;;;;;21.40;9.98;;;;;;;8.42;100.00;100438.28;2614542;36;20027;-51
2021/12/29 06:00:58;;;;;;;27.25;10.25;;;;;;;8.31;100.00;100432.13;2614857;36;20118;-49
2021/12/29 06:03:26;;;;;;;24.00;10.07;;;;;;;8.33;100.00;100428.34;2615002;36;20086;-51
2021/12/29 06:05:54;;;;;;;17.40;9.00;;;;;;;8.30;100.00;100427.75;2614872;36;20073;-53
2021/12/29 06:08:22;;;;;;;19.85;9.23;;;;;;;8.30;100.00;100430.41;2615312;31;20146;-52
2021/12/29 06:10:51;;;;;;;17.45;9.55;;;;;;;8.42;100.00;100449.00;2614309;36;20051;-51
2021/12/29 06:13:19;;;;;;;18.52;9.18;;;;;;;8.37;100.00;100451.22;2613918;31;20153;-53
2021/12/29 06:15:47;;;;;;;16.35;8.30;;;;;;;8.35;100.00;100447.81;2614013;36;20521;-51
2021/12/29 06:18:18;;;;;;;18.25;9.15;;;;;;;8.35;100.00;100450.50;2613302;36;20086;-53
2021/12/29 06:20:46;;;;;;;17.88;8.48;;;;;;;8.56;100.00;100455.03;2615022;36;20432;-48
2021/12/29 06:23:15;;;;;;;17.10;8.48;;;;;;;8.45;100.00;100452.41;2613204;36;20059;-54
2021/12/29 06:25:44;;;;;;;20.10;8.60;;;;;;;8.49;100.00;100454.69;2614473;36;20035;-53
2021/12/29 06:28:12;;;;;;;14.23;7.88;;;;;;;8.58;100.00;100459.28;2611921;31;20197;-54
2021/12/29 06:30:40;;;;;;;16.35;8.25;;;;;;;8.49;100.00;100464.59;2613485;31;20504;-51
2021/12/29 06:33:08;;;;;;;12.35;8.07;;;;;;;8.42;100.00;100470.44;2612855;36;20082;-50
2021/12/29 06:35:39;;;;;;;11.15;7.20;;;;;;;8.38;100.00;100474.38;2610635;36;20122;-50
2021/12/29 06:38:07;;;;;;;12.93;7.00;;;;;;;8.35;100.00;100473.78;2615178;36;20031;-49
2021/12/29 06:40:36;;;;;;;16.35;7.25;;;;;;;8.18;100.00;100470.69;2615758;36;20073;-49
2021/12/29 06:43:04;;;;;;;10.05;7.25;;;;;;;8.25;100.00;100473.72;2615933;31;20481;-53
2021/12/29 06:45:32;;;;;;;14.93;8.40;;;;;;;8.23;100.00;100468.50;2614244;36;20079;-51
2021/12/29 06:48:00;;;;;;;14.13;7.65;;;;;;;8.21;100.00;100472.28;2614940;36;20158;-49
2021/12/29 06:50:29;;;;;;;20.70;8.88;;;;;;;8.19;100.00;100479.63;2614133;36;20543;-49
2021/12/29 06:53:00;;;;;;;15.02;8.75;;;;;;;8.23;100.00;100486.41;2615198;36;20194;-54
2021/12/29 06:55:29;;;;;;;18.48;7.95;;;;;;;8.25;100.00;100489.81;2615416;36;20158;-50
2021/12/29 06:57:57;;;;;;;20.15;8.40;;;;;;;8.19;100.00;100496.53;2616305;36;20034;-51
2021/12/29 07:00:25;;;;;;;27.27;9.07;;;;;;;8.16;100.00;100496.78;2614350;36;20126;-51
2021/12/29 07:02:53;;;;;;;19.27;8.55;;;;;;;8.07;100.00;100495.75;2615498;36;20055;-49
2021/12/29 07:05:22;;;;;;;18.77;7.65;;;;;;;7.99;100.00;100492.84;2615475;36;20038;-50
2021/12/29 07:07:52;;;;;;;13.88;7.57;;;;;;;8.00;100.00;100491.88;2614538;36;20085;-54
2021/12/29 07:10:23;;;;;;;17.85;7.25;;;;;;;7.94;100.00;100497.75;2614581;36;20041;-50
2021/12/29 07:12:52;;;;;;;18.92;7.72;;;;;;;7.98;100.00;100504.56;2614754;36;20166;-51
2021/12/29 07:15:20;;;;;;;16.60;7.07;;;;;;;8.00;100.00;100510.63;2616249;36;20134;-54
2021/12/29 07:17:48;;;;;;;19.92;7.25;;;;;;;8.07;100.00;100513.66;2614318;36;20113;-54
2021/12/29 07:20:16;;;;;;;19.20;7.68;;;;;;;8.06;100.00;100515.47;2615631;31;20105;-51
2021/12/29 07:22:45;;;;;;;26.98;7.68;;;;;;;8.01;100.00;100520.38;2615024;36;22004;-54
2021/12/29 07:25:14;;;;;;;15.40;7.72;;;;;;;8.14;100.00;100517.53;2615510;36;20053;-50
2021/12/29 07:27:45;;;;;;;16.10;8.25;;;;;;;8.23;100.00;100529.31;2616210;36;20122;-54
2021/12/29 07:30:14;;;;;;;18.80;7.88;;;;;;;8.32;100.00;100535.69;2614228;36;20082;-51
2021/12/29 07:32:42;;;;;;;17.13;7.47;;;;;;;8.21;100.00;100542.81;2616016;36;20038;-56
2021/12/29 07:35:12;;;;;;;17.95;7.10;;;;;;;8.27;100.00;100541.47;2613625;36;20042;-56
2021/12/29 07:37:40;;;;;;;19.92;7.78;;;;;;;8.29;100.00;100552.06;2613890;36;20085;-53
2021/12/29 07:40:10;;;;;;;20.52;7.00;;;;;;;8.32;100.00;100549.97;2616146;31;20578;-53
2021/12/29 07:42:41;;;;;;;20.05;7.30;;;;;;;8.39;100.00;100558.34;2615634;36;20510;-52
2021/12/29 07:45:13;;;;;;;15.55;6.90;;;;;;;8.25;100.00;100560.34;2614689;36;20038;-54
2021/12/29 07:47:46;;;;;;;18.48;6.85;;;;;;;8.34;100.00;100555.22;2615246;36;20061;-54
2021/12/29 07:50:15;;;;;;;23.77;7.30;;;;;;;8.44;100.00;100566.91;2613360;36;20551;-51
2021/12/29 07:52:47;;;;;;;25.65;6.70;;;;;;;8.43;100.00;100575.88;2612759;36;20030;-53
2021/12/29 07:55:16;;;;;;;27.10;7.57;;;;;;;8.46;100.00;100575.66;2613631;36;20062;-51
2021/12/29 07:57:45;;;;;;;24.83;7.38;;;;;;;8.50;100.00;100570.91;2614159;36;20643;-53
2021/12/29 08:00:18;;;;;;;21.30;7.43;;;;;;;8.57;100.00;100574.78;2615924;36;20046;-51
2021/12/29 08:02:47;;;;;;;30.02;7.80;;;;;;;8.48;100.00;100575.53;2615221;36;20066;-54
2021/12/29 08:05:15;;;;;;;;;;;;;;;8.48;100.00;100571.03;2612878;36;20035;-52
2021/12/29 08:07:43;;;;;;;17.40;7.40;;;;;;;8.39;100.00;100569.06;2612030;36;19957;-53
2021/12/29 08:10:12;;;;;;;25.08;7.82;;;;;;;8.34;100.00;100579.34;2611422;36;20187;-55
2021/12/29 08:12:40;;;;;;;24.13;7.60;;;;;;;8.45;100.00;100575.78;2611916;36;20095;-51
2021/12/29 08:15:09;;;;;;;27.50;8.02;;;;;;;8.42;100.00;100580.41;2614025;36;20058;-52
2021/12/29 08:17:40;;;;;;;30.02;8.75;;;;;;;8.47;100.00;100572.00;2616238;36;20035;-53
2021/12/29 08:20:11;;;;;;;24.27;7.72;;;;;;;8.42;100.00;100579.53;2615274;36;20030;-47
2021/12/29 08:22:39;;;;;;;23.67;7.55;;;;;;;8.57;100.00;100582.81;2615545;36;20122;-54
2021/12/29 08:25:09;;;;;;;28.67;8.50;;;;;;;8.50;100.00;100578.94;2615953;36;20063;-52
2021/12/29 08:27:38;;;;;;;26.88;8.40;;;;;;;8.33;100.00;100575.81;2616222;36;20115;-53
2021/12/29 08:30:07;;;;;;;22.50;8.98;;;;;;;8.46;100.00;100578.34;2615692;31;20039;-50
2021/12/29 08:32:36;;;;;;;27.13;8.65;;;;;;;8.39;100.00;100580.66;2615747;36;20034;-50
2021/12/29 08:35:08;;;;;;;28.02;8.23;;;;;;;8.39;100.00;100583.34;2614866;31;20066;-54
2021/12/29 08:37:36;;;;;;;27.38;8.50;;;;;;;8.48;100.00;100568.34;2615660;36;20579;-52
2021/12/29 08:40:07;;;;;;;16.85;7.53;;;;;;;8.35;100.00;100570.34;2615870;36;20149;-53
2021/12/29 08:42:35;;;;;;;32.70;9.05;;;;;;;8.30;100.00;100572.53;2615713;36;20034;-50
2021/12/29 08:45:05;;;;;;;22.55;8.82;;;;;;;8.35;100.00;100581.91;2615870;36;20093;-53
2021/12/29 08:47:33;;;;;;;22.35;7.88;;;;;;;8.55;100.00;100584.75;2616387;31;20515;-53
2021/12/29 08:50:01;;;;;;;30.88;10.07;;;;;;;8.46;100.00;100590.91;2615519;31;20022;-49
2021/12/29 08:52:33;;;;;;;24.63;8.60;;;;;;;8.51;100.00;100594.91;2615066;36;20070;-52
2021/12/29 08:55:01;;;;;;;29.02;9.55;;;;;;;8.45;100.00;100591.88;2616250;36;20065;-52
2021/12/29 08:57:29;;;;;;;25.73;9.13;;;;;;;8.33;100.00;100593.72;2616031;36;20069;-52
2021/12/29 08:59:58;;;;;;;27.83;9.70;;;;;;;8.37;100.00;100596.03;2614919;36;20158;-50
2021/12/29 09:02:26;;;;;;;27.70;10.27;;;;;;;8.44;100.00;100606.25;2614614;36;20045;-53
2021/12/29 09:04:55;;;;;;;39.00;11.27;;;;;;;8.33;100.00;100588.38;2615341;36;20141;-51
2021/12/29 09:07:23;;;;;;;29.20;10.82;;;;;;;8.26;100.00;100598.75;2615766;36;20055;-53
2021/12/29 09:09:54;;;;;;;38.42;11.35;;;;;;;8.27;100.00;100595.09;2615662;36;20035;-49
2021/12/29 09:12:22;;;;;;;32.15;11.40;;;;;;;8.30;100.00;100594.00;2615709;36;20615;-52
2021/12/29 09:14:50;;;;;;;34.40;11.75;;;;;;;8.34;100.00;100582.88;2615375;36;20023;-54
2021/12/29 09:17:19;;;;;;;37.37;12.73;;;;;;;8.38;100.00;100581.63;2615671;36;20121;-50
2021/12/29 09:19:47;;;;;;;30.83;12.87;;;;;;;8.51;100.00;100586.00;2614822;31;20571;-50
2021/12/29 09:22:16;;;;;;;26.98;11.60;;;;;;;8.41;100.00;100581.38;2614798;36;20038;-55
2021/12/29 09:24:46;;;;;;;28.58;11.98;;;;;;;8.44;100.00;100584.81;2615608;36;20118;-51
2021/12/29 09:27:17;;;;;;;24.85;11.95;;;;;;;8.56;100.00;100583.78;2612320;36;20054;-52
2021/12/29 09:29:46;;;;;;;31.83;12.77;;;;;;;8.52;100.00;100576.97;2615923;36;20554;-55
2021/12/29 09:32:15;;;;;;;26.88;11.55;;;;;;;8.49;100.00;100588.81;2614341;31;20491;-56
2021/12/29 09:34:43;;;;;;;28.83;13.65;;;;;;;8.50;100.00;100589.69;2614989;36;20085;-52
2021/12/29 09:37:11;;;;;;;31.67;13.07;;;;;;;8.51;100.00;100591.34;2615401;36;20122;-53
2021/12/29 09:39:39;;;;;;;32.78;13.35;;;;;;;8.49;100.00;100588.81;2616152;36;20528;-50
2021/12/29 09:42:11;;;;;;;32.47;12.90;;;;;;;8.49;100.00;100587.97;2613562;36;20613;-54
2021/12/29 09:44:42;;;;;;;32.35;12.48;;;;;;;8.52;100.00;100583.19;2612252;36;20030;-54
2021/12/29 09:47:11;;;;;;;24.05;11.55;;;;;;;8.42;100.00;100575.03;2614827;36;20133;-55
2021/12/29 09:49:39;;;;;;;;;;;;;;;8.54;100.00;100577.72;2615015;36;20117;-52
2021/12/29 09:52:08;;;;;;;28.73;11.70;;;;;;;8.60;100.00;100585.22;2614502;36;20033;-52
2021/12/29 09:54:36;;;;;;;24.80;11.32;;;;;;;8.67;100.00;100570.31;2615084;36;20151;-50
2021/12/29 09:57:07;;;;;;;21.85;12.30;;;;;;;8.65;100.00;100583.00;2615212;36;20133;-53
2021/12/29 09:59:35;;;;;;;33.10;12.35;;;;;;;8.51;100.00;100570.78;2615052;31;20063;-53
2021/12/29 10:02:07;;;;;;;25.05;11.65;;;;;;;8.66;100.00;100570.44;2614849;36;20138;-53
2021/12/29 10:04:37;;;;;;;31.70;13.15;;;;;;;8.68;100.00;100577.38;2615242;36;20506;-53
2021/12/29 10:07:17;;;;;;;25.02;12.43;;;;;;;8.61;100.00;100597.66;2613591;36;20130;-52
2021/12/29 10:09:47;;;;;;;25.75;12.88;;;;;;;8.82;100.00;100591.44;2615202;36;20538;-52
2021/12/29 10:12:19;;;;;;;23.33;11.32;;;;;;;8.68;100.00;100588.09;2615075;36;20053;-54
2021/12/29 10:14:52;;;;;;;25.52;12.82;;;;;;;8.90;100.00;100572.84;2615425;36;20589;-53
2021/12/29 10:17:27;;;;;;;25.67;13.50;;;;;;;8.65;100.00;100569.59;2615957;36;20157;-51
2021/12/29 10:20:04;;;;;;;20.60;11.65;;;;;;;8.88;100.00;100569.47;2613698;36;20567;-53
2021/12/29 10:22:33;;;;;;;25.55;12.88;;;;;;;9.01;100.00;100562.03;2614697;36;20041;-51
2021/12/29 10:25:10;;;;;;;26.10;12.40;;;;;;;8.89;100.00;100557.72;2615394;36;20034;-49
2021/12/29 10:27:39;;;;;;;25.42;12.55;;;;;;;8.94;100.00;100558.19;2616500;36;20571;-53
2021/12/29 10:30:23;;;;;;;18.60;11.27;;;;;;;9.03;100.00;100554.69;2616392;36;20106;-55
2021/12/29 10:32:56;;;;;;;26.27;12.05;;;;;;;8.70;100.00;100556.63;2616720;36;20547;-52
2021/12/29 10:35:26;;;;;;;24.90;11.00;;;;;;;8.87;100.00;100554.34;2615557;31;20030;-52
2021/12/29 10:37:56;;;;;;;21.83;11.77;;;;;;;8.99;100.00;100547.03;2616325;36;20117;-50
2021/12/29 10:40:30;;;;;;;17.83;10.75;;;;;;;9.10;100.00;100539.75;2615620;36;20161;-54
2021/12/29 10:43:01;;;;;;;23.23;10.77;;;;;;;9.08;100.00;100536.38;2613271;36;20093;-53
2021/12/29 10:45:31;;;;;;;23.27;11.05;;;;;;;8.82;100.00;100532.41;2615051;36;20121;-54
2021/12/29 10:48:02;;;;;;;19.58;11.32;;;;;;;8.93;100.00;100537.69;2615609;36;20446;-50
2021/12/29 10:50:33;;;;;;;24.70;11.35;;;;;;;8.94;100.00;100534.03;2614432;36;20063;-53
2021/12/29 10:53:01;;;;;;;20.65;11.07;;;;;;;8.84;100.00;100541.19;2615886;31;20082;-52
2021/12/29 10:55:36;;;;;;;21.08;10.77;;;;;;;8.93;100.00;100543.06;2615548;36;20034;-52
2021/12/29 10:58:08;;;;;;;25.13;11.27;;;;;;;8.90;100.00;100537.97;2612240;36;20072;-56
2021/12/29 11:00:39;;;;;;;18.23;11.15;;;;;;;9.25;100.00;100548.28;2615277;36;20034;-55
2021/12/29 11:03:16;;;;;;;17.50;10.32;;;;;;;9.21;100.00;100554.06;2616618;31;20491;-54
2021/12/29 11:05:50;;;;;;;12.55;9.02;;;;;;;9.28;100.00;100544.50;2615649;36;20170;-52
2021/12/29 11:08:19;;;;;;;14.70;10.15;;;;;;;9.05;100.00;100552.72;2616519;31;20439;-54
2021/12/29 11:10:48;;;;;;;16.95;9.80;;;;;;;9.19;100.00;100556.06;2616456;31;20035;-51
2021/12/29 11:13:26;;;;;;;20.05;10.25;;;;;;;9.07;100.00;100560.66;2615722;36;20074;-56
2021/12/29 11:15:56;;;;;;;21.38;10.35;;;;;;;9.27;100.00;100564.28;2616547;36;20126;-52
2021/12/29 11:18:27;;;;;;;18.95;10.32;;;;;;;9.07;100.00;100569.56;2615429;36;20166;-49
2021/12/29 11:20:56;;;;;;;19.67;11.10;;;;;;;9.29;100.00;100565.00;2616085;36;20061;-55
2021/12/29 11:23:35;;;;;;;18.90;10.88;;;;;;;9.28;100.00;100563.28;2614471;31;20631;-54
2021/12/29 11:26:04;;;;;;;21.75;10.23;;;;;;;9.35;100.00;100563.59;2616457;36;20034;-56
2021/12/29 11:28:34;;;;;;;16.60;10.75;;;;;;;9.27;100.00;100572.31;2616418;36;20126;-56